Consulta les dades en temps real de l'estació municipal de Aiguafreda
| Hora UTC | 14:10 |
|---|---|
| Temperatura | 30.0 ºC |
| Sòl 15 cm | 32.3 ºC |
| Humitat | 53.9 % |
| Pressió | 1018.8 hPa |
| Pluja | 0.0 mm |
| Velocitat vent | 12.3 km/h |
| Direcció vent | SE |
| Temperatura (ºC) | Humitat (%) | Pressió (hPa) | Velocitat vent (km/h) | Precipitació (mm) | |||||||||||||
|---|---|---|---|---|---|---|---|---|---|---|---|---|---|---|---|---|---|
| Hora UTC | Aire | Sòl 15 cm | Humitat | Pressió | Vel. | Dir. | Vel. Max | Dir. | Intent. màx 5 min. | ||||||||
| 00:05 | 17.5 | 16.1 | 64.0 | 1018.0 | 0.0 | NNE | 0.0 | S | 0.0 | ||||||||
| 00:10 | 17.4 | 15.9 | 64.3 | 1018.1 | 0.0 | NNE | 0.0 | SSE | 0.0 | ||||||||
| 00:15 | 17.3 | 15.8 | 64.4 | 1018.1 | 0.0 | NNE | 0.0 | W | 0.0 | ||||||||
| 00:20 | 17.2 | 15.7 | 64.7 | 1018.1 | 0.0 | NNE | 0.0 | S | 0.0 | ||||||||
| 00:25 | 17.2 | 15.7 | 65.4 | 1018.1 | 0.0 | NNE | 0.0 | S | 0.0 | ||||||||
| 00:30 | 17.1 | 15.7 | 65.4 | 1018.1 | 0.0 | NNE | 0.0 | NNW | 0.0 | ||||||||
| 00:35 | 17.1 | 15.6 | 65.3 | 1018.1 | 0.0 | NNE | 0.0 | NNW | 0.0 | ||||||||
| 00:40 | 17.0 | 15.5 | 65.6 | 1018.1 | 0.0 | NNE | 0.0 | S | 0.0 | ||||||||
| 00:45 | 17.0 | 15.5 | 65.4 | 1018.1 | 0.0 | NNE | 0.0 | WNW | 0.0 | ||||||||
| 00:50 | 16.9 | 15.4 | 65.5 | 1018.1 | 0.0 | NNE | 0.0 | NNW | 0.0 | ||||||||
| 00:55 | 16.9 | 15.4 | 65.5 | 1018.2 | 0.0 | NNE | 0.0 | NW | 0.0 | ||||||||
| 01:00 | 16.9 | 15.4 | 66.2 | 1018.2 | 0.0 | NNE | 0.0 | ESE | 0.0 | ||||||||
| 01:05 | 16.8 | 15.3 | 66.4 | 1018.2 | 0.0 | NNE | 0.0 | NW | 0.0 | ||||||||
| 01:10 | 16.8 | 15.3 | 66.8 | 1018.2 | 0.0 | NNE | 0.0 | NW | 0.0 | ||||||||
| 01:15 | 16.7 | 15.1 | 67.2 | 1018.2 | 0.0 | NNE | 0.0 | NW | 0.0 | ||||||||
| 01:20 | 16.6 | 15.1 | 67.7 | 1018.2 | 0.0 | NNE | 0.0 | NW | 0.0 | ||||||||
| 01:25 | 16.5 | 15.0 | 68.0 | 1018.2 | 0.0 | NNE | 0.0 | NE | 0.0 | ||||||||
| 01:30 | 16.5 | 14.9 | 68.5 | 1018.2 | 0.0 | NNE | 0.0 | NE | 0.0 | ||||||||
| 01:35 | 16.4 | 14.9 | 68.7 | 1018.2 | 0.0 | NNE | 0.0 | NW | 0.0 | ||||||||
| 01:40 | 16.3 | 14.8 | 69.1 | 1018.2 | 0.0 | NNE | 0.0 | N | 0.0 | ||||||||
| 01:45 | 16.3 | 14.8 | 69.1 | 1018.2 | 0.0 | NNE | 0.0 | NNE | 0.0 | ||||||||
| 01:50 | 16.2 | 14.7 | 69.4 | 1018.2 | 0.0 | NNE | 0.0 | NE | 0.0 | ||||||||
| 01:55 | 16.2 | 14.7 | 69.7 | 1018.2 | 0.0 | NNE | 0.0 | NNE | 0.0 | ||||||||
| 02:00 | 16.1 | 14.6 | 70.3 | 1018.2 | 0.0 | NNE | 0.0 | NNE | 0.0 | ||||||||
| 02:05 | 16.1 | 14.6 | 70.7 | 1018.1 | 0.0 | NNE | 0.0 | NNE | 0.0 | ||||||||
| 02:10 | 16.0 | 14.5 | 70.6 | 1018.1 | 0.0 | NNE | 0.0 | NNE | 0.0 | ||||||||
| 02:15 | 15.9 | 14.4 | 70.8 | 1018.2 | 0.0 | NNE | 0.0 | NNE | 0.0 | ||||||||
| 02:20 | 15.9 | 14.4 | 71.3 | 1018.1 | 0.0 | NNE | 0.0 | NNE | 0.0 | ||||||||
| 02:25 | 15.8 | 14.3 | 71.4 | 1018.1 | 0.0 | NNE | 0.0 | NNE | 0.0 | ||||||||
| 02:30 | 15.8 | 14.3 | 71.6 | 1018.1 | 0.0 | NNE | 0.0 | NNW | 0.0 | ||||||||
| 02:35 | 15.7 | 14.2 | 71.8 | 1018.2 | 0.0 | NNE | 0.0 | NNW | 0.0 | ||||||||
| 02:40 | 15.7 | 14.2 | 71.9 | 1018.2 | 0.0 | NNE | 0.0 | NNW | 0.0 | ||||||||
| 02:45 | 15.7 | 14.1 | 72.2 | 1018.2 | 0.0 | NNE | 0.0 | NNW | 0.0 | ||||||||
| 02:50 | 15.6 | 14.1 | 72.5 | 1018.2 | 0.0 | NNE | 0.0 | NNW | 0.0 | ||||||||
| 02:55 | 15.6 | 14.1 | 72.8 | 1018.3 | 0.0 | NNE | 0.0 | NNW | 0.0 | ||||||||
| 03:00 | 15.6 | 14.0 | 72.8 | 1018.3 | 0.0 | NNE | 0.0 | NNW | 0.0 | ||||||||
| 03:05 | 15.5 | 14.0 | 73.0 | 1018.4 | 0.0 | NNE | 0.0 | NNW | 0.0 | ||||||||
| 03:10 | 15.5 | 14.0 | 73.5 | 1018.4 | 0.0 | NNE | 0.0 | N | 0.0 | ||||||||
| 03:15 | 15.4 | 13.9 | 73.6 | 1018.4 | 0.0 | NNE | 0.0 | N | 0.0 | ||||||||
| 03:20 | 15.4 | 13.9 | 73.9 | 1018.4 | 0.0 | NNE | 0.0 | ENE | 0.0 | ||||||||
| 03:25 | 15.3 | 13.8 | 74.0 | 1018.4 | 0.0 | NNE | 0.0 | NNE | 0.0 | ||||||||
| 03:30 | 15.3 | 13.8 | 74.3 | 1018.4 | 0.0 | NNE | 0.0 | NNE | 0.0 | ||||||||
| 03:35 | 15.3 | 13.8 | 74.3 | 1018.4 | 0.0 | NNE | 0.0 | NNE | 0.0 | ||||||||
| 03:40 | 15.2 | 13.7 | 74.4 | 1018.4 | 0.0 | NNE | 0.0 | NNE | 0.0 | ||||||||
| 03:45 | 15.2 | 13.7 | 74.6 | 1018.4 | 0.0 | NNE | 0.0 | NNE | 0.0 | ||||||||
| 03:50 | 15.1 | 13.7 | 74.7 | 1018.4 | 0.0 | NNE | 0.0 | NNE | 0.0 | ||||||||
| 03:55 | 15.1 | 13.6 | 75.4 | 1018.4 | 0.0 | NNE | 0.0 | NNE | 0.0 | ||||||||
| 04:00 | 15.0 | 13.6 | 75.5 | 1018.4 | 0.0 | NNE | 0.0 | NNE | 0.0 | ||||||||
| 04:05 | 15.0 | 13.5 | 75.9 | 1018.4 | 0.0 | NNE | 0.0 | NNE | 0.0 | ||||||||
| 04:10 | 15.0 | 13.5 | 76.1 | 1018.4 | 0.0 | NNE | 0.0 | NNE | 0.0 | ||||||||
| 04:15 | 15.0 | 13.4 | 76.3 | 1018.4 | 0.0 | NNE | 0.0 | SE | 0.0 | ||||||||
| 04:20 | 14.9 | 13.4 | 76.4 | 1018.4 | 0.0 | NNE | 0.0 | ENE | 0.0 | ||||||||
| 04:25 | 14.9 | 13.3 | 76.8 | 1018.5 | 0.0 | NNE | 0.0 | ENE | 0.0 | ||||||||
| 04:30 | 14.8 | 13.3 | 76.8 | 1018.5 | 0.0 | NNE | 0.0 | 0.0 | |||||||||
| 04:35 | 14.8 | 13.3 | 77.0 | 1018.5 | 0.0 | NNE | 0.0 | 0.0 | |||||||||
| 04:40 | 14.7 | 13.3 | 77.1 | 1018.5 | 0.0 | NNE | 0.0 | 0.0 | |||||||||
| 04:45 | 14.7 | 13.2 | 77.3 | 1018.5 | 0.0 | NNE | 0.0 | 0.0 | |||||||||
| 04:50 | 14.6 | 13.2 | 77.7 | 1018.5 | 0.0 | NNE | 0.0 | 0.0 | |||||||||
| 04:55 | 14.6 | 13.2 | 77.8 | 1018.5 | 0.0 | NNE | 0.0 | 0.0 | |||||||||
| 05:00 | 14.6 | 13.2 | 77.9 | 1018.5 | 0.0 | NNE | 0.0 | 0.0 | |||||||||
| 05:05 | 14.6 | 13.2 | 78.1 | 1018.5 | 0.0 | NNE | 0.0 | 0.0 | |||||||||
| 05:10 | 14.6 | 13.2 | 78.4 | 1018.6 | 0.0 | NNE | 0.0 | 0.0 | |||||||||
| 05:15 | 14.6 | 13.2 | 78.9 | 1018.6 | 0.0 | NNE | 0.0 | N | 0.0 | ||||||||
| 05:20 | 14.6 | 13.1 | 79.1 | 1018.7 | 0.0 | NNE | 0.0 | N | 0.0 | ||||||||
| 05:25 | 14.6 | 13.1 | 79.2 | 1018.8 | 0.0 | NNE | 0.0 | NE | 0.0 | ||||||||
| 05:30 | 14.6 | 13.2 | 79.5 | 1018.8 | 0.0 | NNE | 0.0 | NW | 0.0 | ||||||||
| 05:35 | 14.6 | 13.2 | 79.6 | 1018.8 | 0.0 | NNE | 0.0 | NW | 0.0 | ||||||||
| 05:40 | 14.6 | 13.2 | 79.5 | 1018.9 | 0.0 | NNE | 0.0 | NW | 0.0 | ||||||||
| 05:45 | 14.6 | 13.3 | 79.2 | 1018.9 | 0.0 | NNE | 0.0 | NW | 0.0 | ||||||||
| 05:50 | 14.7 | 13.4 | 79.1 | 1018.9 | 0.0 | NNE | 0.0 | NW | 0.0 | ||||||||
| 05:55 | 14.7 | 13.4 | 79.1 | 1018.9 | 0.0 | NNE | 0.0 | NW | 0.0 | ||||||||
| 06:00 | 14.7 | 13.5 | 79.0 | 1018.9 | 0.0 | NNE | 0.0 | NW | 0.0 | ||||||||
| 06:05 | 14.8 | 13.6 | 78.9 | 1019.0 | 0.0 | NNE | 0.0 | NW | 0.0 | ||||||||
| 06:10 | 14.8 | 13.7 | 78.7 | 1019.0 | 0.0 | NNE | 0.0 | NW | 0.0 | ||||||||
| 06:15 | 14.9 | 13.8 | 78.5 | 1019.1 | 0.0 | NNE | 0.0 | ENE | 0.0 | ||||||||
| 06:20 | 15.0 | 13.9 | 78.1 | 1019.1 | 0.0 | NNE | 0.0 | ENE | 0.0 | ||||||||
| 06:25 | 15.0 | 14.1 | 77.7 | 1019.1 | 0.0 | NNE | 0.0 | ENE | 0.0 | ||||||||
| 06:30 | 15.2 | 14.2 | 77.4 | 1019.2 | 0.0 | NNE | 0.0 | SW | 0.0 | ||||||||
| 06:35 | 15.4 | 14.4 | 76.5 | 1019.2 | 0.0 | NNE | 0.0 | SSE | 0.0 | ||||||||
| 06:40 | 15.6 | 14.6 | 75.8 | 1019.3 | 0.0 | NNE | 0.0 | SSE | 0.0 | ||||||||
| 06:45 | 15.8 | 14.9 | 75.3 | 1019.3 | 0.0 | NNE | 0.0 | SE | 0.0 | ||||||||
| 06:50 | 16.1 | 15.2 | 74.4 | 1019.4 | 0.0 | NNE | 0.0 | SSE | 0.0 | ||||||||
| 06:55 | 16.4 | 15.5 | 73.6 | 1019.4 | 0.0 | NNE | 0.0 | SSE | 0.0 | ||||||||
| 07:00 | 16.7 | 15.7 | 72.7 | 1019.4 | 0.0 | NNE | 0.0 | SSE | 0.0 | ||||||||
| 07:05 | 17.1 | 16.1 | 71.1 | 1019.4 | 0.0 | NNE | 0.0 | SE | 0.0 | ||||||||
| 07:10 | 17.5 | 16.5 | 69.8 | 1019.4 | 0.0 | NNE | 0.0 | SSE | 0.0 | ||||||||
| 07:15 | 17.9 | 16.7 | 69.1 | 1019.4 | 0.0 | NNE | 0.0 | SSE | 0.0 | ||||||||
| 07:20 | 18.3 | 17.2 | 68.1 | 1019.4 | 0.0 | NNE | 0.0 | SSE | 0.0 | ||||||||
| 07:25 | 18.7 | 17.6 | 67.1 | 1019.3 | 0.0 | NNE | 0.0 | SSE | 0.0 | ||||||||
| 07:30 | 19.1 | 17.9 | 66.1 | 1019.4 | 0.0 | SE | 3.4 | SE | 0.0 | ||||||||
| 07:35 | 19.5 | 18.5 | 64.9 | 1019.4 | 0.0 | NNE | 0.0 | SSE | 0.0 | ||||||||
| 07:40 | 20.0 | 18.8 | 63.9 | 1019.4 | 0.0 | NNE | 0.0 | SSE | 0.0 | ||||||||
| 07:45 | 20.8 | 19.4 | 61.6 | 1019.4 | 0.0 | NNE | 0.0 | SSW | 0.0 | ||||||||
| 07:50 | 21.8 | 20.0 | 58.8 | 1019.4 | 0.0 | NNE | 0.0 | S | 0.0 | ||||||||
| 07:55 | 22.9 | 21.0 | 55.9 | 1019.4 | 0.0 | NNE | 0.0 | S | 0.0 | ||||||||
| 08:00 | 23.8 | 22.0 | 53.2 | 1019.4 | 0.0 | NNE | 0.0 | SW | 0.0 | ||||||||
| 08:05 | 24.4 | 23.2 | 51.2 | 1019.5 | 0.0 | NNE | 0.0 | SSW | 0.0 | ||||||||
| 08:10 | 25.1 | 24.1 | 49.0 | 1019.5 | 0.0 | NNE | 0.0 | S | 0.0 | ||||||||
| 08:15 | 25.4 | 24.8 | 48.0 | 1019.6 | 0.0 | NNE | 0.0 | SSW | 0.0 | ||||||||
| 08:20 | 25.7 | 25.8 | 47.6 | 1019.6 | 3.7 | SSE | 11.5 | E | 0.0 | ||||||||
| 08:25 | 26.1 | 27.2 | 45.5 | 1019.7 | 6.4 | SSE | 16.9 | SSE | 0.0 | ||||||||
| 08:30 | 26.2 | 27.9 | 45.0 | 1019.7 | 9.2 | SSE | 19.6 | SE | 0.0 | ||||||||
| 08:35 | 26.3 | 28.3 | 44.6 | 1019.7 | 10.6 | SE | 22.3 | SE | 0.0 | ||||||||
| 08:40 | 26.5 | 29.1 | 44.3 | 1019.8 | 9.1 | SE | 19.6 | SSE | 0.0 | ||||||||
| 08:45 | 26.7 | 29.4 | 43.6 | 1019.7 | 9.8 | SE | 19.6 | SSE | 0.0 | ||||||||
| 08:50 | 26.8 | 29.8 | 44.0 | 1019.8 | 10.1 | SE | 19.6 | SSE | 0.0 | ||||||||
| 08:55 | 26.9 | 30.1 | 47.2 | 1019.8 | 7.9 | SSE | 16.9 | S | 0.0 | ||||||||
| 09:00 | 27.5 | 31.0 | 49.9 | 1019.9 | 8.2 | S | 16.9 | S | 0.0 | ||||||||
| 09:05 | 27.3 | 30.5 | 52.2 | 1019.8 | 10.1 | SSE | 19.6 | S | 0.0 | ||||||||
| 09:10 | 27.2 | 30.5 | 53.1 | 1019.9 | 10.0 | SSE | 19.6 | S | 0.0 | ||||||||
| 09:15 | 27.2 | 30.7 | 54.2 | 1020.0 | 10.5 | SE | 19.6 | SE | 0.0 | ||||||||
| 09:20 | 27.4 | 31.1 | 54.6 | 1020.0 | 9.4 | SSE | 22.3 | ESE | 0.0 | ||||||||
| 09:25 | 27.4 | 30.9 | 54.3 | 1020.0 | 9.3 | SE | 22.3 | SE | 0.0 | ||||||||
| 09:30 | 27.5 | 31.0 | 53.4 | 1020.0 | 10.6 | SE | 19.6 | SE | 0.0 | ||||||||
| 09:35 | 27.6 | 31.2 | 51.8 | 1020.1 | 11.5 | SSE | 27.7 | S | 0.0 | ||||||||
| 09:40 | 27.8 | 31.5 | 51.2 | 1020.0 | 9.0 | SSE | 16.9 | ESE | 0.0 | ||||||||
| 09:45 | 27.9 | 31.8 | 50.6 | 1020.1 | 8.3 | SE | 19.6 | S | 0.0 | ||||||||
| 09:50 | 27.8 | 31.4 | 50.7 | 1020.0 | 7.7 | SSE | 16.9 | S | 0.0 | ||||||||
| 09:55 | 28.3 | 32.1 | 49.9 | 1020.1 | 9.1 | SSE | 16.9 | SE | 0.0 | ||||||||
| 10:00 | 28.1 | 31.6 | 49.8 | 1020.1 | 11.3 | SSE | 22.3 | SSE | 0.0 | ||||||||
| 10:05 | 28.0 | 32.1 | 50.3 | 1020.0 | 6.4 | SE | 14.2 | SSE | 0.0 | ||||||||
| 10:10 | 27.9 | 31.7 | 49.8 | 1020.0 | 11.1 | SSE | 22.3 | SSE | 0.0 | ||||||||
| 10:15 | 28.1 | 32.3 | 48.9 | 1019.9 | 8.9 | SSE | 16.9 | SSE | 0.0 | ||||||||
| 10:20 | 28.4 | 32.8 | 48.4 | 1019.9 | 8.8 | SSE | 19.6 | SSE | 0.0 | ||||||||
| 10:25 | 28.3 | 32.1 | 48.7 | 1019.8 | 11.5 | SSE | 25.0 | S | 0.0 | ||||||||
| 10:30 | 28.5 | 32.3 | 48.6 | 1019.8 | 9.6 | SE | 22.3 | SE | 0.0 | ||||||||
| 10:35 | 28.7 | 32.6 | 46.8 | 1019.9 | 9.2 | S | 16.9 | S | 0.0 | ||||||||
| 10:40 | 28.7 | 32.4 | 47.3 | 1019.9 | 10.3 | SSE | 19.6 | SE | 0.0 | ||||||||
| 10:45 | 29.0 | 33.4 | 47.3 | 1019.8 | 6.2 | SSE | 16.9 | SSW | 0.0 | ||||||||
| 10:50 | 29.6 | 33.8 | 44.9 | 1019.8 | 8.8 | SE | 19.6 | S | 0.0 | ||||||||
| 10:55 | 29.4 | 33.6 | 45.0 | 1019.8 | 9.4 | SSE | 22.3 | S | 0.0 | ||||||||
| 11:00 | 29.5 | 33.9 | 44.8 | 1019.7 | 6.5 | SSE | 14.2 | SSE | 0.0 | ||||||||
| 11:05 | 29.8 | 34.1 | 44.6 | 1019.6 | 9.3 | SE | 19.6 | SE | 0.0 | ||||||||
| 11:10 | 29.9 | 33.5 | 44.9 | 1019.6 | 7.9 | SSE | 16.9 | ESE | 0.0 | ||||||||
| 11:15 | 29.9 | 33.3 | 44.2 | 1019.6 | 11.3 | SSE | 19.6 | S | 0.0 | ||||||||
| 11:20 | 29.7 | 33.4 | 44.5 | 1019.6 | 9.5 | SE | 19.6 | SSE | 0.0 | ||||||||
| 11:25 | 29.9 | 33.5 | 44.5 | 1019.5 | 10.7 | SSE | 25.0 | SSE | 0.0 | ||||||||
| 11:30 | 30.3 | 34.5 | 43.7 | 1019.5 | 7.6 | S | 16.9 | SSE | 0.0 | ||||||||
| 11:35 | 30.8 | 35.2 | 42.6 | 1019.5 | 8.0 | SSE | 19.6 | SSE | 0.0 | ||||||||
| 11:40 | 30.4 | 34.3 | 43.5 | 1019.4 | 9.9 | SSE | 22.3 | S | 0.0 | ||||||||
| 11:45 | 30.4 | 34.7 | 43.5 | 1019.4 | 10.5 | SSE | 19.6 | SSE | 0.0 | ||||||||
| 11:50 | 30.3 | 34.5 | 43.9 | 1019.4 | 10.0 | SSE | 22.3 | SSE | 0.0 | ||||||||
| 11:55 | 30.9 | 35.3 | 42.5 | 1019.4 | 10.5 | SSE | 22.3 | SSE | 0.0 | ||||||||
| 12:00 | 30.3 | 34.2 | 44.1 | 1019.4 | 11.5 | SSE | 27.7 | SSE | 0.0 | ||||||||
| 12:05 | 30.5 | 34.6 | 44.2 | 1019.3 | 10.1 | SSE | 22.3 | SSE | 0.0 | ||||||||
| 12:10 | 30.8 | 34.5 | 43.5 | 1019.3 | 10.5 | SE | 19.6 | SE | 0.0 | ||||||||
| 12:15 | 30.8 | 34.4 | 43.7 | 1019.2 | 12.5 | SSE | 22.3 | ESE | 0.0 | ||||||||
| 12:20 | 31.0 | 35.0 | 43.7 | 1019.1 | 9.8 | S | 22.3 | SE | 0.0 | ||||||||
| 12:25 | 30.9 | 34.2 | 44.1 | 1019.1 | 10.8 | SE | 22.3 | SE | 0.0 | ||||||||
| 12:30 | 30.9 | 34.3 | 44.2 | 1019.0 | 12.2 | SE | 19.6 | SE | 0.0 | ||||||||
| 12:35 | 31.1 | 34.0 | 44.0 | 1019.1 | 11.8 | S | 22.3 | SSE | 0.0 | ||||||||
| 12:40 | 30.6 | 33.4 | 45.2 | 1019.2 | 12.7 | SSE | 19.6 | SE | 0.0 | ||||||||
| 12:45 | 30.2 | 33.1 | 46.8 | 1019.1 | 15.3 | SSE | 25.0 | SSE | 0.0 | ||||||||
| 12:50 | 29.7 | 31.2 | 48.1 | 1019.1 | 11.2 | SSE | 22.3 | S | 0.0 | ||||||||
| 12:55 | 30.0 | 32.9 | 48.2 | 1019.0 | 10.7 | SSE | 22.3 | SE | 0.0 | ||||||||
| 13:00 | 30.5 | 33.8 | 47.1 | 1018.9 | 9.8 | S | 22.3 | SSW | 0.0 | ||||||||
| 13:05 | 30.4 | 33.8 | 47.3 | 1019.0 | 13.4 | SSE | 25.0 | SSE | 0.0 | ||||||||
| 13:10 | 30.5 | 33.8 | 47.6 | 1019.0 | 10.3 | SE | 19.6 | SSE | 0.0 | ||||||||
| 13:15 | 31.0 | 34.7 | 46.6 | 1018.8 | 9.4 | S | 22.3 | SE | 0.0 | ||||||||
| 13:20 | 30.7 | 33.9 | 47.4 | 1018.8 | 10.8 | SE | 19.6 | ESE | 0.0 | ||||||||
| 13:25 | 30.8 | 34.5 | 47.3 | 1018.8 | 10.7 | SSE | 22.3 | SSE | 0.0 | ||||||||
| 13:30 | 31.0 | 34.5 | 47.2 | 1018.8 | 10.9 | S | 25.0 | SE | 0.0 | ||||||||
| 13:35 | 30.7 | 33.3 | 48.1 | 1018.8 | 14.6 | SSE | 25.0 | SSE | 0.0 | ||||||||
| 13:40 | 30.4 | 33.5 | 49.4 | 1018.8 | 12.0 | SE | 27.7 | SE | 0.0 | ||||||||
| 13:45 | 30.5 | 33.1 | 49.3 | 1018.8 | 12.3 | SSE | 22.3 | SSE | 0.0 | ||||||||
| 13:50 | 30.5 | 33.5 | 49.9 | 1018.8 | 11.9 | SE | 22.3 | ESE | 0.0 | ||||||||
| 13:55 | 30.3 | 32.2 | 50.8 | 1018.9 | 12.5 | SSE | 22.3 | S | 0.0 | ||||||||
| 14:00 | 30.6 | 33.6 | 51.4 | 1018.8 | 12.8 | SSE | 25.0 | SE | 0.0 | ||||||||
| 14:05 | 30.3 | 33.1 | 52.4 | 1018.9 | 14.6 | SSE | 25.0 | S | 0.0 | ||||||||
| 14:10 | 30.0 | 32.3 | 53.9 | 1018.8 | 12.3 | SE | 25.0 | SSE | 0.0 | ||||||||
| Màxima | 31.1 | 35.3 | 79.6 | 1020.1 | 15.3 | SSE | 27.7 | SE | 0.0 | ||||||||
| Mínima | 14.6 | 13.1 | 42.5 | 1018.0 | |||||||||||||
| Total | 0.0 | ||||||||||||||||